createdAt,value
2018-04-11T00:08:05.276Z,41
2018-04-11T00:18:04.449Z,41
2018-04-11T00:28:03.713Z,41
2018-04-11T00:38:02.858Z,41.1
2018-04-11T00:48:02.078Z,41.1
2018-04-11T00:58:01.282Z,41.1
2018-04-11T01:08:00.487Z,41.1
2018-04-11T01:17:59.698Z,41.1
2018-04-11T01:27:58.919Z,41.1
2018-04-11T01:37:58.181Z,41.1
2018-04-11T01:47:57.330Z,41.1
2018-04-11T01:57:56.591Z,41.1
2018-04-11T02:07:55.764Z,41.1
2018-04-11T02:17:55.013Z,41.1
2018-04-11T02:27:54.190Z,41.1
2018-04-11T02:37:53.386Z,41
2018-04-11T02:47:52.596Z,34.8
2018-04-11T02:57:51.809Z,34.8
2018-04-11T03:07:51.067Z,34.8
2018-04-11T03:17:50.240Z,34.7
2018-04-11T03:27:49.439Z,34.3
2018-04-11T03:37:48.650Z,33.7
2018-04-11T03:47:47.864Z,33.6
2018-04-11T03:57:47.133Z,33.1
2018-04-11T04:07:46.330Z,31.9
2018-04-11T04:17:45.554Z,32
2018-04-11T04:27:44.715Z,31.8
2018-04-11T04:37:43.991Z,28.9
2018-04-11T04:47:43.139Z,22.6
2018-04-11T04:57:42.409Z,23.3
2018-04-11T05:07:41.570Z,23.6
2018-04-11T05:17:40.772Z,23.8
2018-04-11T05:27:39.983Z,24.1
2018-04-11T05:37:39.202Z,24.3
2018-04-11T05:47:38.412Z,24.6
2018-04-11T05:57:37.632Z,24.9
2018-04-11T06:07:36.882Z,25.3
2018-04-11T06:17:36.033Z,25.8
2018-04-11T06:27:35.299Z,26.3
2018-04-11T06:37:34.463Z,26.9
2018-04-11T06:47:33.725Z,27.5
2018-04-11T06:57:32.915Z,28.1
2018-04-11T07:07:32.128Z,28.1
2018-04-11T07:17:31.337Z,28.8
2018-04-11T07:27:30.548Z,29.6
2018-04-11T07:37:29.769Z,30.5
2018-04-11T07:47:29.030Z,31.2
2018-04-11T07:57:28.181Z,31.7
2018-04-11T08:07:27.444Z,32.4
2018-04-11T08:17:26.606Z,33.2
2018-04-11T08:27:25.867Z,33.9
2018-04-11T08:37:25.040Z,34.8
2018-04-11T08:47:24.409Z,35.8
2018-04-11T08:57:23.460Z,36.9
2018-04-11T09:07:22.677Z,38.1
2018-04-11T09:17:21.888Z,39.1
2018-04-11T09:27:21.103Z,39.9
2018-04-11T09:37:20.320Z,40.5
2018-04-11T09:47:19.533Z,41.2
2018-04-11T09:57:18.738Z,41.8
2018-04-11T10:07:17.948Z,42.3
2018-04-11T10:17:17.217Z,42.8
2018-04-11T10:27:16.383Z,43.4
2018-04-11T10:37:15.592Z,44
2018-04-11T10:47:14.845Z,44.7
2018-04-11T10:57:14.008Z,45.3
2018-04-11T11:07:13.232Z,46.1
2018-04-11T11:17:12.444Z,46.7
2018-04-11T11:27:11.707Z,47.3
2018-04-11T11:37:10.860Z,47.9
2018-04-11T11:47:10.126Z,48.4
2018-04-11T11:57:09.286Z,48.9
2018-04-11T12:07:08.558Z,49.6
2018-04-11T12:17:07.721Z,50.3
2018-04-11T12:27:06.988Z,50.9
2018-04-11T12:37:06.144Z,51.4
2018-04-11T12:47:05.349Z,51.8
2018-04-11T12:57:04.561Z,52.3
2018-04-11T13:07:03.776Z,52.9
2018-04-11T13:17:02.980Z,53.4
2018-04-11T13:27:02.201Z,53.9
2018-04-11T13:37:01.404Z,54.6
2018-04-11T13:47:00.615Z,55.2
2018-04-11T13:56:59.877Z,55.8
2018-04-11T14:06:59.049Z,56.2
2018-04-11T14:16:58.261Z,56.5
2018-04-11T14:26:57.461Z,56.9
2018-04-11T14:36:56.674Z,57.1
2018-04-11T14:46:55.887Z,57.5
2018-04-11T14:56:55.113Z,57.7
2018-04-11T15:06:54.359Z,58
2018-04-11T15:16:53.523Z,58.1
2018-04-11T15:26:52.737Z,58.3
2018-04-11T15:36:51.999Z,58.2
2018-04-11T15:46:51.175Z,57.7
2018-04-11T15:56:50.376Z,56.4
2018-04-11T16:06:49.595Z,55.9
2018-04-11T16:16:48.855Z,55.6
2018-04-11T16:26:48.028Z,55.3
2018-04-11T16:36:47.282Z,54.6
2018-04-11T16:46:46.477Z,53.5
2018-04-11T16:56:45.661Z,52.9
2018-04-11T17:06:44.878Z,51.4
2018-04-11T17:16:44.101Z,51.1
2018-04-11T17:26:43.312Z,50.9
2018-04-11T17:36:42.518Z,50.8
2018-04-11T17:46:41.797Z,50.3
2018-04-11T17:56:41.020Z,49.4
2018-04-11T18:06:40.275Z,48.5
2018-04-11T18:16:39.451Z,44.8
2018-04-11T18:26:38.716Z,45.1
2018-04-11T18:36:37.883Z,44.6
2018-04-11T18:46:37.153Z,42.1
2018-04-11T18:56:36.329Z,42.3
2018-04-11T19:06:35.546Z,39.8
2018-04-11T19:16:34.765Z,37.9
2018-04-11T19:26:34.031Z,34.4
2018-04-11T19:36:33.199Z,34.6
2018-04-11T19:46:32.494Z,34.9
2018-04-11T19:56:31.715Z,35
2018-04-11T20:06:30.855Z,35.1
2018-04-11T20:16:30.071Z,35.1
2018-04-11T20:26:29.292Z,35.3
2018-04-11T20:36:28.547Z,35.3
2018-04-11T20:46:27.737Z,35.4
2018-04-11T20:56:26.939Z,35.4
2018-04-11T21:06:26.190Z,35.4
2018-04-11T21:16:25.369Z,35.5
2018-04-11T21:26:24.621Z,35.6
2018-04-11T21:36:23.784Z,35.6
2018-04-11T21:46:23.052Z,35.6
2018-04-11T21:56:22.224Z,35.7
2018-04-11T22:06:21.486Z,35.8
2018-04-11T22:16:20.651Z,35.8
2018-04-11T22:26:19.917Z,35.8
2018-04-11T22:36:19.141Z,35.9
2018-04-11T22:46:18.340Z,35.9
2018-04-11T22:56:17.497Z,35.9
2018-04-11T23:06:16.763Z,35.9
2018-04-11T23:16:15.951Z,36
2018-04-11T23:26:15.193Z,36.1
2018-04-11T23:36:14.356Z,36.1
2018-04-11T23:46:13.625Z,36.1
2018-04-11T23:56:12.788Z,36.1
